sensor_id;sensor_type;location;lat;lon;timestamp;P1;durP1;ratioP1;P2;durP2;ratioP2
16075;SDS011;8142;48.242;11.644;2023-03-11T00:01:05;1.20;;;1.10;;
16075;SDS011;8142;48.242;11.644;2023-03-11T00:03:31;1.20;;;1.10;;
16075;SDS011;8142;48.242;11.644;2023-03-11T00:05:58;1.63;;;1.00;;
16075;SDS011;8142;48.242;11.644;2023-03-11T00:08:25;0.90;;;0.90;;
16075;SDS011;8142;48.242;11.644;2023-03-11T00:10:56;0.93;;;0.93;;
16075;SDS011;8142;48.242;11.644;2023-03-11T00:13:25;0.90;;;0.90;;
16075;SDS011;8142;48.242;11.644;2023-03-11T00:15:53;1.00;;;1.00;;
16075;SDS011;8142;48.242;11.644;2023-03-11T00:18:24;0.90;;;0.90;;
16075;SDS011;8142;48.242;11.644;2023-03-11T00:20:52;1.30;;;1.20;;
16075;SDS011;8142;48.242;11.644;2023-03-11T00:23:19;1.60;;;1.00;;
16075;SDS011;8142;48.242;11.644;2023-03-11T00:25:45;1.43;;;1.07;;
16075;SDS011;8142;48.242;11.644;2023-03-11T00:28:12;1.10;;;1.00;;
16075;SDS011;8142;48.242;11.644;2023-03-11T00:30:39;1.17;;;1.07;;
16075;SDS011;8142;48.242;11.644;2023-03-11T00:33:07;2.40;;;1.07;;
16075;SDS011;8142;48.242;11.644;2023-03-11T00:35:34;1.77;;;1.17;;
16075;SDS011;8142;48.242;11.644;2023-03-11T00:38:01;1.00;;;1.00;;
16075;SDS011;8142;48.242;11.644;2023-03-11T00:40:30;1.00;;;1.00;;
16075;SDS011;8142;48.242;11.644;2023-03-11T00:42:58;1.13;;;1.03;;
16075;SDS011;8142;48.242;11.644;2023-03-11T00:45:24;1.00;;;1.00;;
16075;SDS011;8142;48.242;11.644;2023-03-11T00:47:50;1.33;;;1.00;;
16075;SDS011;8142;48.242;11.644;2023-03-11T00:50:18;1.20;;;1.10;;
16075;SDS011;8142;48.242;11.644;2023-03-11T00:52:47;1.07;;;1.07;;
16075;SDS011;8142;48.242;11.644;2023-03-11T00:55:15;1.13;;;1.07;;
16075;SDS011;8142;48.242;11.644;2023-03-11T00:57:45;1.33;;;1.23;;
16075;SDS011;8142;48.242;11.644;2023-03-11T01:00:13;1.00;;;1.00;;
16075;SDS011;8142;48.242;11.644;2023-03-11T01:02:43;1.00;;;1.00;;
16075;SDS011;8142;48.242;11.644;2023-03-11T01:05:09;1.00;;;1.00;;
16075;SDS011;8142;48.242;11.644;2023-03-11T01:07:36;0.90;;;0.90;;
16075;SDS011;8142;48.242;11.644;2023-03-11T01:10:02;1.00;;;1.00;;
16075;SDS011;8142;48.242;11.644;2023-03-11T01:12:28;1.23;;;1.10;;
16075;SDS011;8142;48.242;11.644;2023-03-11T01:14:54;1.13;;;1.10;;
16075;SDS011;8142;48.242;11.644;2023-03-11T01:17:20;1.27;;;1.17;;
16075;SDS011;8142;48.242;11.644;2023-03-11T01:19:46;1.20;;;1.10;;
16075;SDS011;8142;48.242;11.644;2023-03-11T01:22:13;2.30;;;1.10;;
16075;SDS011;8142;48.242;11.644;2023-03-11T01:24:39;0.93;;;0.93;;
16075;SDS011;8142;48.242;11.644;2023-03-11T01:27:04;1.43;;;1.00;;
16075;SDS011;8142;48.242;11.644;2023-03-11T01:29:30;1.33;;;1.00;;
16075;SDS011;8142;48.242;11.644;2023-03-11T01:31:56;1.00;;;1.00;;
16075;SDS011;8142;48.242;11.644;2023-03-11T01:34:23;1.00;;;1.00;;
16075;SDS011;8142;48.242;11.644;2023-03-11T01:36:49;1.10;;;1.10;;
16075;SDS011;8142;48.242;11.644;2023-03-11T01:39:15;1.10;;;1.10;;
16075;SDS011;8142;48.242;11.644;2023-03-11T01:41:41;0.90;;;0.90;;
16075;SDS011;8142;48.242;11.644;2023-03-11T01:44:09;0.83;;;0.77;;
16075;SDS011;8142;48.242;11.644;2023-03-11T01:47:23;1.27;;;0.90;;
16075;SDS011;8142;48.242;11.644;2023-03-11T01:49:26;0.90;;;0.90;;
16075;SDS011;8142;48.242;11.644;2023-03-11T01:51:53;1.40;;;0.80;;
16075;SDS011;8142;48.242;11.644;2023-03-11T01:54:24;1.43;;;0.90;;
16075;SDS011;8142;48.242;11.644;2023-03-11T01:56:54;0.90;;;0.90;;
16075;SDS011;8142;48.242;11.644;2023-03-11T01:59:22;0.80;;;0.80;;
16075;SDS011;8142;48.242;11.644;2023-03-11T02:01:52;0.90;;;0.90;;
16075;SDS011;8142;48.242;11.644;2023-03-11T02:04:23;0.90;;;0.90;;
16075;SDS011;8142;48.242;11.644;2023-03-11T02:06:50;0.80;;;0.80;;
16075;SDS011;8142;48.242;11.644;2023-03-11T02:09:17;1.07;;;0.87;;
16075;SDS011;8142;48.242;11.644;2023-03-11T02:11:42;0.70;;;0.70;;
16075;SDS011;8142;48.242;11.644;2023-03-11T02:14:08;0.73;;;0.73;;
16075;SDS011;8142;48.242;11.644;2023-03-11T02:16:34;0.67;;;0.67;;
16075;SDS011;8142;48.242;11.644;2023-03-11T02:19:03;0.97;;;0.97;;
16075;SDS011;8142;48.242;11.644;2023-03-11T02:21:50;0.90;;;0.90;;
16075;SDS011;8142;48.242;11.644;2023-03-11T02:27:05;0.80;;;0.80;;
16075;SDS011;8142;48.242;11.644;2023-03-11T02:29:36;1.17;;;1.07;;
16075;SDS011;8142;48.242;11.644;2023-03-11T02:32:06;0.90;;;0.90;;
16075;SDS011;8142;48.242;11.644;2023-03-11T02:34:35;0.77;;;0.77;;
16075;SDS011;8142;48.242;11.644;2023-03-11T02:37:04;0.97;;;0.97;;
16075;SDS011;8142;48.242;11.644;2023-03-11T02:39:34;1.27;;;1.00;;
16075;SDS011;8142;48.242;11.644;2023-03-11T02:42:44;1.10;;;1.00;;
16075;SDS011;8142;48.242;11.644;2023-03-11T02:45:04;1.07;;;1.07;;
16075;SDS011;8142;48.242;11.644;2023-03-11T02:47:33;0.90;;;0.90;;
16075;SDS011;8142;48.242;11.644;2023-03-11T02:50:01;1.27;;;1.10;;
16075;SDS011;8142;48.242;11.644;2023-03-11T02:52:29;1.23;;;1.13;;
16075;SDS011;8142;48.242;11.644;2023-03-11T02:54:57;1.10;;;0.93;;
16075;SDS011;8142;48.242;11.644;2023-03-11T02:57:23;1.07;;;1.07;;
16075;SDS011;8142;48.242;11.644;2023-03-11T02:59:49;1.17;;;1.10;;
16075;SDS011;8142;48.242;11.644;2023-03-11T03:02:15;0.90;;;0.90;;
16075;SDS011;8142;48.242;11.644;2023-03-11T03:04:41;1.33;;;1.23;;
16075;SDS011;8142;48.242;11.644;2023-03-11T03:07:07;1.27;;;1.00;;
16075;SDS011;8142;48.242;11.644;2023-03-11T03:09:34;1.50;;;1.10;;
16075;SDS011;8142;48.242;11.644;2023-03-11T03:12:00;0.93;;;0.93;;
16075;SDS011;8142;48.242;11.644;2023-03-11T03:14:26;0.80;;;0.80;;
16075;SDS011;8142;48.242;11.644;2023-03-11T03:16:52;1.13;;;1.13;;
16075;SDS011;8142;48.242;11.644;2023-03-11T03:19:18;2.37;;;1.20;;
16075;SDS011;8142;48.242;11.644;2023-03-11T03:21:44;1.50;;;1.00;;
16075;SDS011;8142;48.242;11.644;2023-03-11T03:24:10;1.37;;;1.00;;
16075;SDS011;8142;48.242;11.644;2023-03-11T03:26:36;1.20;;;1.10;;
16075;SDS011;8142;48.242;11.644;2023-03-11T03:29:02;1.10;;;1.00;;
16075;SDS011;8142;48.242;11.644;2023-03-11T03:31:29;1.20;;;1.10;;
16075;SDS011;8142;48.242;11.644;2023-03-11T03:33:55;1.20;;;1.10;;
16075;SDS011;8142;48.242;11.644;2023-03-11T03:36:20;1.17;;;1.10;;
16075;SDS011;8142;48.242;11.644;2023-03-11T03:38:46;1.17;;;1.07;;
16075;SDS011;8142;48.242;11.644;2023-03-11T03:41:12;0.90;;;0.90;;
16075;SDS011;8142;48.242;11.644;2023-03-11T03:43:40;1.07;;;1.00;;
16075;SDS011;8142;48.242;11.644;2023-03-11T03:46:06;1.37;;;1.07;;
16075;SDS011;8142;48.242;11.644;2023-03-11T03:48:32;1.00;;;1.00;;
16075;SDS011;8142;48.242;11.644;2023-03-11T03:51:05;1.17;;;1.17;;
16075;SDS011;8142;48.242;11.644;2023-03-11T03:53:33;1.20;;;1.10;;
16075;SDS011;8142;48.242;11.644;2023-03-11T03:56:02;1.20;;;1.10;;
16075;SDS011;8142;48.242;11.644;2023-03-11T03:58:33;1.37;;;1.27;;
16075;SDS011;8142;48.242;11.644;2023-03-11T04:00:59;1.53;;;1.27;;
16075;SDS011;8142;48.242;11.644;2023-03-11T04:03:25;1.30;;;1.20;;
16075;SDS011;8142;48.242;11.644;2023-03-11T04:05:52;1.30;;;1.20;;
16075;SDS011;8142;48.242;11.644;2023-03-11T04:08:18;1.13;;;1.10;;
16075;SDS011;8142;48.242;11.644;2023-03-11T04:10:44;1.10;;;1.00;;
16075;SDS011;8142;48.242;11.644;2023-03-11T04:13:21;0.97;;;0.97;;
16075;SDS011;8142;48.242;11.644;2023-03-11T04:15:47;1.10;;;1.10;;
16075;SDS011;8142;48.242;11.644;2023-03-11T04:18:13;1.27;;;1.17;;
16075;SDS011;8142;48.242;11.644;2023-03-11T04:20:39;1.13;;;1.07;;
16075;SDS011;8142;48.242;11.644;2023-03-11T04:23:05;1.00;;;1.00;;
16075;SDS011;8142;48.242;11.644;2023-03-11T04:25:31;1.00;;;1.00;;
16075;SDS011;8142;48.242;11.644;2023-03-11T04:27:58;1.20;;;1.10;;
16075;SDS011;8142;48.242;11.644;2023-03-11T04:30:24;2.10;;;1.20;;
16075;SDS011;8142;48.242;11.644;2023-03-11T04:32:50;1.67;;;1.20;;
16075;SDS011;8142;48.242;11.644;2023-03-11T04:35:16;1.30;;;1.20;;
16075;SDS011;8142;48.242;11.644;2023-03-11T04:37:42;1.10;;;1.10;;
16075;SDS011;8142;48.242;11.644;2023-03-11T04:40:08;2.03;;;1.40;;
16075;SDS011;8142;48.242;11.644;2023-03-11T04:42:35;7.40;;;1.40;;
16075;SDS011;8142;48.242;11.644;2023-03-11T04:45:01;1.37;;;1.27;;
16075;SDS011;8142;48.242;11.644;2023-03-11T04:47:27;1.20;;;1.10;;
16075;SDS011;8142;48.242;11.644;2023-03-11T04:49:53;3.33;;;1.30;;
16075;SDS011;8142;48.242;11.644;2023-03-11T04:52:20;1.43;;;1.33;;
16075;SDS011;8142;48.242;11.644;2023-03-11T04:54:46;1.43;;;1.10;;
16075;SDS011;8142;48.242;11.644;2023-03-11T04:57:12;1.73;;;1.20;;
16075;SDS011;8142;48.242;11.644;2023-03-11T04:59:38;1.20;;;1.10;;
16075;SDS011;8142;48.242;11.644;2023-03-11T05:02:04;1.30;;;1.20;;
16075;SDS011;8142;48.242;11.644;2023-03-11T05:04:29;2.13;;;1.30;;
16075;SDS011;8142;48.242;11.644;2023-03-11T05:06:55;1.10;;;1.00;;
16075;SDS011;8142;48.242;11.644;2023-03-11T05:09:21;1.43;;;1.30;;
16075;SDS011;8142;48.242;11.644;2023-03-11T05:11:47;1.30;;;1.20;;
16075;SDS011;8142;48.242;11.644;2023-03-11T05:14:13;1.43;;;1.17;;
16075;SDS011;8142;48.242;11.644;2023-03-11T05:16:39;1.20;;;1.20;;
16075;SDS011;8142;48.242;11.644;2023-03-11T05:19:04;1.60;;;1.10;;
16075;SDS011;8142;48.242;11.644;2023-03-11T05:21:50;1.40;;;1.30;;
16075;SDS011;8142;48.242;11.644;2023-03-11T05:24:16;1.60;;;1.30;;
16075;SDS011;8142;48.242;11.644;2023-03-11T05:26:42;1.60;;;1.50;;
16075;SDS011;8142;48.242;11.644;2023-03-11T05:29:08;1.67;;;1.23;;
16075;SDS011;8142;48.242;11.644;2023-03-11T05:31:33;1.53;;;1.43;;
16075;SDS011;8142;48.242;11.644;2023-03-11T05:33:59;1.70;;;1.43;;
16075;SDS011;8142;48.242;11.644;2023-03-11T05:36:25;1.90;;;1.47;;
16075;SDS011;8142;48.242;11.644;2023-03-11T05:38:51;1.67;;;1.40;;
16075;SDS011;8142;48.242;11.644;2023-03-11T05:41:17;3.33;;;1.67;;
16075;SDS011;8142;48.242;11.644;2023-03-11T05:43:43;2.07;;;1.50;;
16075;SDS011;8142;48.242;11.644;2023-03-11T05:46:10;1.80;;;1.50;;
16075;SDS011;8142;48.242;11.644;2023-03-11T05:48:36;2.60;;;1.40;;
16075;SDS011;8142;48.242;11.644;2023-03-11T05:51:09;2.17;;;1.33;;
16075;SDS011;8142;48.242;11.644;2023-03-11T05:53:35;2.67;;;1.40;;
16075;SDS011;8142;48.242;11.644;2023-03-11T05:56:02;1.67;;;1.53;;
16075;SDS011;8142;48.242;11.644;2023-03-11T05:58:29;1.70;;;1.30;;
16075;SDS011;8142;48.242;11.644;2023-03-11T06:00:56;2.43;;;1.23;;
16075;SDS011;8142;48.242;11.644;2023-03-11T06:03:23;2.80;;;1.47;;
16075;SDS011;8142;48.242;11.644;2023-03-11T06:05:49;1.97;;;1.30;;
16075;SDS011;8142;48.242;11.644;2023-03-11T06:08:15;1.40;;;1.30;;
16075;SDS011;8142;48.242;11.644;2023-03-11T06:10:41;3.47;;;1.90;;
16075;SDS011;8142;48.242;11.644;2023-03-11T06:13:08;1.40;;;1.30;;
16075;SDS011;8142;48.242;11.644;2023-03-11T06:15:34;1.33;;;1.23;;
16075;SDS011;8142;48.242;11.644;2023-03-11T06:18:01;1.37;;;1.27;;
16075;SDS011;8142;48.242;11.644;2023-03-11T06:20:27;1.73;;;1.30;;
16075;SDS011;8142;48.242;11.644;2023-03-11T06:22:53;3.10;;;1.53;;
16075;SDS011;8142;48.242;11.644;2023-03-11T06:25:19;2.77;;;1.47;;
16075;SDS011;8142;48.242;11.644;2023-03-11T06:27:49;1.63;;;1.47;;
16075;SDS011;8142;48.242;11.644;2023-03-11T06:30:17;1.80;;;1.33;;
16075;SDS011;8142;48.242;11.644;2023-03-11T06:32:46;2.50;;;1.50;;
16075;SDS011;8142;48.242;11.644;2023-03-11T06:35:12;1.97;;;1.40;;
16075;SDS011;8142;48.242;11.644;2023-03-11T06:37:39;2.53;;;1.40;;
16075;SDS011;8142;48.242;11.644;2023-03-11T06:40:06;1.67;;;1.50;;
16075;SDS011;8142;48.242;11.644;2023-03-11T06:42:34;1.57;;;1.27;;
16075;SDS011;8142;48.242;11.644;2023-03-11T06:45:00;1.97;;;1.40;;
16075;SDS011;8142;48.242;11.644;2023-03-11T06:47:26;3.30;;;1.70;;
16075;SDS011;8142;48.242;11.644;2023-03-11T06:49:52;2.97;;;1.47;;
16075;SDS011;8142;48.242;11.644;2023-03-11T06:52:18;1.33;;;1.23;;
16075;SDS011;8142;48.242;11.644;2023-03-11T06:54:44;1.27;;;1.20;;
16075;SDS011;8142;48.242;11.644;2023-03-11T06:57:11;1.83;;;1.17;;
16075;SDS011;8142;48.242;11.644;2023-03-11T06:59:37;3.63;;;1.30;;
16075;SDS011;8142;48.242;11.644;2023-03-11T07:02:04;1.43;;;1.10;;
16075;SDS011;8142;48.242;11.644;2023-03-11T07:04:31;2.20;;;1.10;;
16075;SDS011;8142;48.242;11.644;2023-03-11T07:06:57;2.63;;;1.20;;
16075;SDS011;8142;48.242;11.644;2023-03-11T07:09:23;1.87;;;1.20;;
16075;SDS011;8142;48.242;11.644;2023-03-11T07:11:52;1.20;;;1.10;;
16075;SDS011;8142;48.242;11.644;2023-03-11T07:14:18;1.70;;;1.10;;
16075;SDS011;8142;48.242;11.644;2023-03-11T07:16:44;2.20;;;1.23;;
16075;SDS011;8142;48.242;11.644;2023-03-11T07:19:10;1.40;;;1.10;;
16075;SDS011;8142;48.242;11.644;2023-03-11T07:21:37;1.43;;;0.90;;
16075;SDS011;8142;48.242;11.644;2023-03-11T07:24:03;3.00;;;1.33;;
16075;SDS011;8142;48.242;11.644;2023-03-11T07:26:31;1.60;;;0.90;;
16075;SDS011;8142;48.242;11.644;2023-03-11T07:28:58;1.27;;;1.17;;
16075;SDS011;8142;48.242;11.644;2023-03-11T07:31:25;2.60;;;1.20;;
16075;SDS011;8142;48.242;11.644;2023-03-11T07:33:56;1.40;;;1.17;;
16075;SDS011;8142;48.242;11.644;2023-03-11T07:36:23;1.47;;;1.00;;
16075;SDS011;8142;48.242;11.644;2023-03-11T07:38:57;1.37;;;1.10;;
16075;SDS011;8142;48.242;11.644;2023-03-11T07:41:27;2.10;;;1.00;;
16075;SDS011;8142;48.242;11.644;2023-03-11T07:43:55;2.93;;;1.60;;
16075;SDS011;8142;48.242;11.644;2023-03-11T07:46:22;3.63;;;1.63;;
16075;SDS011;8142;48.242;11.644;2023-03-11T07:48:49;2.17;;;1.20;;
16075;SDS011;8142;48.242;11.644;2023-03-11T07:51:26;1.87;;;1.20;;
16075;SDS011;8142;48.242;11.644;2023-03-11T07:53:55;1.93;;;1.00;;
16075;SDS011;8142;48.242;11.644;2023-03-11T07:56:24;2.63;;;1.00;;
16075;SDS011;8142;48.242;11.644;2023-03-11T07:58:52;2.87;;;1.10;;
16075;SDS011;8142;48.242;11.644;2023-03-11T08:01:19;3.80;;;1.50;;
16075;SDS011;8142;48.242;11.644;2023-03-11T08:03:47;1.60;;;1.00;;
16075;SDS011;8142;48.242;11.644;2023-03-11T08:06:16;2.83;;;1.40;;
16075;SDS011;8142;48.242;11.644;2023-03-11T08:08:45;2.33;;;1.10;;
16075;SDS011;8142;48.242;11.644;2023-03-11T08:11:11;1.40;;;1.10;;
16075;SDS011;8142;48.242;11.644;2023-03-11T08:13:42;2.40;;;1.13;;
16075;SDS011;8142;48.242;11.644;2023-03-11T08:16:09;1.43;;;1.10;;
16075;SDS011;8142;48.242;11.644;2023-03-11T08:18:37;2.80;;;1.10;;
16075;SDS011;8142;48.242;11.644;2023-03-11T08:21:06;1.83;;;1.10;;
16075;SDS011;8142;48.242;11.644;2023-03-11T08:23:33;1.13;;;1.00;;
16075;SDS011;8142;48.242;11.644;2023-03-11T08:26:03;3.70;;;1.10;;
16075;SDS011;8142;48.242;11.644;2023-03-11T08:28:33;3.40;;;1.10;;
16075;SDS011;8142;48.242;11.644;2023-03-11T08:30:59;1.13;;;1.00;;
16075;SDS011;8142;48.242;11.644;2023-03-11T08:33:25;1.10;;;1.00;;
16075;SDS011;8142;48.242;11.644;2023-03-11T08:35:52;1.50;;;1.10;;
16075;SDS011;8142;48.242;11.644;2023-03-11T08:38:18;2.83;;;1.00;;
16075;SDS011;8142;48.242;11.644;2023-03-11T08:40:44;1.57;;;0.90;;
16075;SDS011;8142;48.242;11.644;2023-03-11T08:43:12;1.07;;;0.97;;
16075;SDS011;8142;48.242;11.644;2023-03-11T08:45:40;2.47;;;1.10;;
16075;SDS011;8142;48.242;11.644;2023-03-11T08:48:06;2.53;;;1.13;;
16075;SDS011;8142;48.242;11.644;2023-03-11T08:50:34;3.20;;;1.20;;
16075;SDS011;8142;48.242;11.644;2023-03-11T08:53:00;1.13;;;1.10;;
16075;SDS011;8142;48.242;11.644;2023-03-11T08:55:27;2.40;;;1.17;;
16075;SDS011;8142;48.242;11.644;2023-03-11T08:57:54;1.83;;;1.30;;
16075;SDS011;8142;48.242;11.644;2023-03-11T09:00:20;2.93;;;1.00;;
16075;SDS011;8142;48.242;11.644;2023-03-11T09:02:46;1.17;;;1.10;;
16075;SDS011;8142;48.242;11.644;2023-03-11T09:05:13;1.30;;;1.20;;
16075;SDS011;8142;48.242;11.644;2023-03-11T09:07:39;2.63;;;1.20;;
16075;SDS011;8142;48.242;11.644;2023-03-11T09:10:06;1.50;;;1.27;;
16075;SDS011;8142;48.242;11.644;2023-03-11T09:12:32;2.57;;;1.10;;
16075;SDS011;8142;48.242;11.644;2023-03-11T09:14:58;1.90;;;1.10;;
16075;SDS011;8142;48.242;11.644;2023-03-11T09:17:24;2.07;;;1.10;;
16075;SDS011;8142;48.242;11.644;2023-03-11T09:19:50;1.10;;;1.00;;
16075;SDS011;8142;48.242;11.644;2023-03-11T09:22:16;2.00;;;1.10;;
16075;SDS011;8142;48.242;11.644;2023-03-11T09:24:42;1.00;;;1.00;;
16075;SDS011;8142;48.242;11.644;2023-03-11T09:27:08;1.37;;;1.13;;
16075;SDS011;8142;48.242;11.644;2023-03-11T09:29:35;1.73;;;1.20;;
16075;SDS011;8142;48.242;11.644;2023-03-11T09:32:00;3.13;;;1.50;;
16075;SDS011;8142;48.242;11.644;2023-03-11T09:34:26;2.53;;;1.30;;
16075;SDS011;8142;48.242;11.644;2023-03-11T09:36:52;2.70;;;1.47;;
16075;SDS011;8142;48.242;11.644;2023-03-11T09:39:18;1.37;;;1.10;;
16075;SDS011;8142;48.242;11.644;2023-03-11T09:41:45;1.27;;;1.17;;
16075;SDS011;8142;48.242;11.644;2023-03-11T09:45:02;1.30;;;1.20;;
16075;SDS011;8142;48.242;11.644;2023-03-11T09:49:52;1.20;;;1.10;;
16075;SDS011;8142;48.242;11.644;2023-03-11T09:52:36;1.30;;;1.20;;
16075;SDS011;8142;48.242;11.644;2023-03-11T09:57:59;2.30;;;1.20;;
16075;SDS011;8142;48.242;11.644;2023-03-11T10:00:28;1.57;;;0.90;;
16075;SDS011;8142;48.242;11.644;2023-03-11T10:02:56;1.20;;;1.10;;
16075;SDS011;8142;48.242;11.644;2023-03-11T10:05:25;2.10;;;1.07;;
16075;SDS011;8142;48.242;11.644;2023-03-11T10:08:08;1.30;;;1.20;;
16075;SDS011;8142;48.242;11.644;2023-03-11T10:11:09;0.97;;;0.83;;
16075;SDS011;8142;48.242;11.644;2023-03-11T10:13:44;1.33;;;1.03;;
16075;SDS011;8142;48.242;11.644;2023-03-11T10:16:23;2.40;;;1.13;;
16075;SDS011;8142;48.242;11.644;2023-03-11T10:19:10;2.43;;;1.60;;
16075;SDS011;8142;48.242;11.644;2023-03-11T10:24:34;1.67;;;1.20;;
16075;SDS011;8142;48.242;11.644;2023-03-11T10:27:05;1.50;;;1.20;;
16075;SDS011;8142;48.242;11.644;2023-03-11T10:29:47;3.60;;;1.50;;
16075;SDS011;8142;48.242;11.644;2023-03-11T10:32:37;1.10;;;1.10;;
16075;SDS011;8142;48.242;11.644;2023-03-11T10:37:43;3.47;;;1.30;;
16075;SDS011;8142;48.242;11.644;2023-03-11T10:40:17;2.47;;;1.37;;
16075;SDS011;8142;48.242;11.644;2023-03-11T10:42:49;1.77;;;1.30;;
16075;SDS011;8142;48.242;11.644;2023-03-11T10:45:16;4.27;;;1.37;;
16075;SDS011;8142;48.242;11.644;2023-03-11T10:47:45;1.77;;;1.30;;
16075;SDS011;8142;48.242;11.644;2023-03-11T10:50:12;2.10;;;1.50;;
16075;SDS011;8142;48.242;11.644;2023-03-11T10:53:02;1.83;;;1.20;;
16075;SDS011;8142;48.242;11.644;2023-03-11T10:55:33;2.03;;;1.30;;
16075;SDS011;8142;48.242;11.644;2023-03-11T10:58:03;2.40;;;1.40;;
16075;SDS011;8142;48.242;11.644;2023-03-11T11:00:37;2.33;;;1.57;;
16075;SDS011;8142;48.242;11.644;2023-03-11T11:03:03;1.43;;;1.33;;
16075;SDS011;8142;48.242;11.644;2023-03-11T11:05:31;3.67;;;1.70;;
16075;SDS011;8142;48.242;11.644;2023-03-11T11:08:01;2.60;;;1.27;;
16075;SDS011;8142;48.242;11.644;2023-03-11T11:10:48;2.50;;;1.37;;
16075;SDS011;8142;48.242;11.644;2023-03-11T11:13:17;3.33;;;1.40;;
16075;SDS011;8142;48.242;11.644;2023-03-11T11:18:23;1.47;;;1.23;;
16075;SDS011;8142;48.242;11.644;2023-03-11T11:26:15;2.77;;;1.63;;
16075;SDS011;8142;48.242;11.644;2023-03-11T11:28:43;2.13;;;1.30;;
16075;SDS011;8142;48.242;11.644;2023-03-11T11:31:22;1.67;;;1.30;;
16075;SDS011;8142;48.242;11.644;2023-03-11T11:33:50;4.10;;;1.53;;
16075;SDS011;8142;48.242;11.644;2023-03-11T11:36:19;1.90;;;1.20;;
16075;SDS011;8142;48.242;11.644;2023-03-11T11:38:49;1.90;;;1.33;;
16075;SDS011;8142;48.242;11.644;2023-03-11T11:41:19;2.30;;;1.13;;
16075;SDS011;8142;48.242;11.644;2023-03-11T11:43:54;2.40;;;1.50;;
16075;SDS011;8142;48.242;11.644;2023-03-11T11:46:27;3.90;;;1.40;;
16075;SDS011;8142;48.242;11.644;2023-03-11T11:51:43;1.30;;;1.20;;
16075;SDS011;8142;48.242;11.644;2023-03-11T11:57:23;1.60;;;1.30;;
16075;SDS011;8142;48.242;11.644;2023-03-11T11:59:49;1.30;;;1.20;;
16075;SDS011;8142;48.242;11.644;2023-03-11T12:07:16;1.73;;;1.40;;
16075;SDS011;8142;48.242;11.644;2023-03-11T12:24:24;3.53;;;1.50;;
16075;SDS011;8142;48.242;11.644;2023-03-11T12:27:18;2.83;;;1.30;;
16075;SDS011;8142;48.242;11.644;2023-03-11T12:29:47;1.70;;;1.40;;
16075;SDS011;8142;48.242;11.644;2023-03-11T12:35:28;2.63;;;1.43;;
16075;SDS011;8142;48.242;11.644;2023-03-11T12:37:59;2.03;;;1.30;;
16075;SDS011;8142;48.242;11.644;2023-03-11T12:45:54;2.00;;;1.30;;
16075;SDS011;8142;48.242;11.644;2023-03-11T12:51:00;3.30;;;1.37;;
16075;SDS011;8142;48.242;11.644;2023-03-11T12:59:06;2.63;;;1.10;;
16075;SDS011;8142;48.242;11.644;2023-03-11T13:10:15;2.60;;;1.50;;
16075;SDS011;8142;48.242;11.644;2023-03-11T13:13:00;1.97;;;1.60;;
16075;SDS011;8142;48.242;11.644;2023-03-11T13:15:28;4.70;;;2.27;;
16075;SDS011;8142;48.242;11.644;2023-03-11T13:28:44;4.00;;;1.80;;
16075;SDS011;8142;48.242;11.644;2023-03-11T13:44:53;2.37;;;1.60;;
16075;SDS011;8142;48.242;11.644;2023-03-11T13:47:21;2.50;;;1.57;;
16075;SDS011;8142;48.242;11.644;2023-03-11T13:52:26;2.30;;;1.40;;
16075;SDS011;8142;48.242;11.644;2023-03-11T13:57:32;2.13;;;1.63;;
16075;SDS011;8142;48.242;11.644;2023-03-11T14:00:32;2.97;;;1.40;;
16075;SDS011;8142;48.242;11.644;2023-03-11T14:02:56;3.77;;;1.50;;
16075;SDS011;8142;48.242;11.644;2023-03-11T14:08:19;3.93;;;1.67;;
16075;SDS011;8142;48.242;11.644;2023-03-11T14:10:54;2.63;;;1.30;;
16075;SDS011;8142;48.242;11.644;2023-03-11T14:13:29;1.83;;;1.50;;
16075;SDS011;8142;48.242;11.644;2023-03-11T14:19:03;2.47;;;1.50;;
16075;SDS011;8142;48.242;11.644;2023-03-11T14:21:29;1.83;;;1.50;;
16075;SDS011;8142;48.242;11.644;2023-03-11T14:23:56;3.23;;;1.67;;
16075;SDS011;8142;48.242;11.644;2023-03-11T14:28:57;3.43;;;1.70;;
16075;SDS011;8142;48.242;11.644;2023-03-11T14:31:28;2.27;;;1.40;;
16075;SDS011;8142;48.242;11.644;2023-03-11T14:33:57;1.67;;;1.53;;
16075;SDS011;8142;48.242;11.644;2023-03-11T14:36:47;2.80;;;1.60;;
16075;SDS011;8142;48.242;11.644;2023-03-11T14:44:26;2.30;;;1.60;;
16075;SDS011;8142;48.242;11.644;2023-03-11T14:46:58;1.90;;;1.67;;
16075;SDS011;8142;48.242;11.644;2023-03-11T14:49:33;1.70;;;1.60;;
16075;SDS011;8142;48.242;11.644;2023-03-11T14:52:01;3.20;;;1.83;;
16075;SDS011;8142;48.242;11.644;2023-03-11T14:54:40;4.70;;;2.87;;
16075;SDS011;8142;48.242;11.644;2023-03-11T14:57:52;2.77;;;2.00;;
16075;SDS011;8142;48.242;11.644;2023-03-11T15:00:04;3.63;;;2.17;;
16075;SDS011;8142;48.242;11.644;2023-03-11T15:05:47;5.43;;;1.90;;
16075;SDS011;8142;48.242;11.644;2023-03-11T15:08:16;2.97;;;2.17;;
16075;SDS011;8142;48.242;11.644;2023-03-11T15:13:42;3.10;;;2.27;;
16075;SDS011;8142;48.242;11.644;2023-03-11T15:18:58;5.57;;;3.00;;
16075;SDS011;8142;48.242;11.644;2023-03-11T15:21:46;6.47;;;2.87;;
16075;SDS011;8142;48.242;11.644;2023-03-11T15:24:17;3.90;;;2.23;;
16075;SDS011;8142;48.242;11.644;2023-03-11T15:27:05;4.30;;;2.80;;
16075;SDS011;8142;48.242;11.644;2023-03-11T15:29:48;5.27;;;3.30;;
16075;SDS011;8142;48.242;11.644;2023-03-11T15:32:34;6.77;;;3.43;;
16075;SDS011;8142;48.242;11.644;2023-03-11T15:37:32;4.10;;;2.10;;
16075;SDS011;8142;48.242;11.644;2023-03-11T15:42:47;5.23;;;2.50;;
16075;SDS011;8142;48.242;11.644;2023-03-11T15:45:17;4.00;;;2.63;;
16075;SDS011;8142;48.242;11.644;2023-03-11T15:47:45;3.13;;;2.00;;
16075;SDS011;8142;48.242;11.644;2023-03-11T15:52:50;3.13;;;2.43;;
16075;SDS011;8142;48.242;11.644;2023-03-11T15:55:17;2.33;;;2.10;;
16075;SDS011;8142;48.242;11.644;2023-03-11T15:57:44;4.57;;;2.50;;
16075;SDS011;8142;48.242;11.644;2023-03-11T16:00:15;6.27;;;3.60;;
16075;SDS011;8142;48.242;11.644;2023-03-11T16:02:47;5.83;;;2.63;;
16075;SDS011;8142;48.242;11.644;2023-03-11T16:05:15;2.37;;;2.00;;
16075;SDS011;8142;48.242;11.644;2023-03-11T16:07:43;2.10;;;1.90;;
16075;SDS011;8142;48.242;11.644;2023-03-11T16:10:10;3.07;;;2.10;;
16075;SDS011;8142;48.242;11.644;2023-03-11T16:12:37;2.40;;;1.90;;
16075;SDS011;8142;48.242;11.644;2023-03-11T16:15:04;4.97;;;2.73;;
16075;SDS011;8142;48.242;11.644;2023-03-11T16:17:30;4.63;;;2.37;;
16075;SDS011;8142;48.242;11.644;2023-03-11T16:19:56;3.87;;;1.80;;
16075;SDS011;8142;48.242;11.644;2023-03-11T16:22:33;4.50;;;2.07;;
16075;SDS011;8142;48.242;11.644;2023-03-11T16:25:01;2.63;;;2.00;;
16075;SDS011;8142;48.242;11.644;2023-03-11T16:27:28;2.00;;;1.80;;
16075;SDS011;8142;48.242;11.644;2023-03-11T16:29:54;4.80;;;1.80;;
16075;SDS011;8142;48.242;11.644;2023-03-11T16:32:20;4.07;;;2.03;;
16075;SDS011;8142;48.242;11.644;2023-03-11T16:34:46;4.67;;;3.00;;
16075;SDS011;8142;48.242;11.644;2023-03-11T16:37:13;9.90;;;4.90;;
16075;SDS011;8142;48.242;11.644;2023-03-11T16:39:40;5.03;;;3.40;;
16075;SDS011;8142;48.242;11.644;2023-03-11T16:42:06;5.67;;;2.77;;
16075;SDS011;8142;48.242;11.644;2023-03-11T16:44:33;3.23;;;1.80;;
16075;SDS011;8142;48.242;11.644;2023-03-11T16:46:59;2.33;;;1.70;;
16075;SDS011;8142;48.242;11.644;2023-03-11T16:49:24;2.40;;;1.70;;
16075;SDS011;8142;48.242;11.644;2023-03-11T16:51:50;2.23;;;1.57;;
16075;SDS011;8142;48.242;11.644;2023-03-11T16:54:16;1.77;;;1.60;;
16075;SDS011;8142;48.242;11.644;2023-03-11T16:56:42;3.40;;;1.90;;
16075;SDS011;8142;48.242;11.644;2023-03-11T16:59:08;2.20;;;2.00;;
16075;SDS011;8142;48.242;11.644;2023-03-11T17:01:34;4.50;;;2.30;;
16075;SDS011;8142;48.242;11.644;2023-03-11T17:04:04;2.87;;;1.83;;
16075;SDS011;8142;48.242;11.644;2023-03-11T17:06:31;2.70;;;2.00;;
16075;SDS011;8142;48.242;11.644;2023-03-11T17:08:57;19.90;;;12.67;;
16075;SDS011;8142;48.242;11.644;2023-03-11T17:11:23;12.20;;;9.03;;